Time;durP1;ratioP1;P1;durP2;ratioP2;P2;SDS_P1;SDS_P2;PMS_P1;PMS_P2;Temp;Humidity;BMP_temperature;BMP_pressure;BME280_temperature;BME280_humidity;BME280_pressure;Samples;Min_cycle;Max_cycle;Signal;HPM_P1;HPM_P2
2023/04/02 00:02:20;;;;;;;13.97;7.77;;;;;;;5.94;100.00;100988.69;5058124;28;20040;-93
2023/04/02 00:05:19;;;;;;;14.57;8.07;;;;;;;5.86;100.00;100988.63;5057838;28;20480;-93
2023/04/02 00:07:52;;;;;;;14.35;7.90;;;;;;;5.89;100.00;100992.91;5058078;28;20053;-92
2023/04/02 00:10:34;;;;;;;11.50;6.57;;;;;;;5.91;100.00;100992.94;5058307;28;20021;-93
2023/04/02 00:13:02;;;;;;;13.90;7.82;;;;;;;5.92;100.00;101000.69;5058544;28;20419;-93
2023/04/02 00:15:28;;;;;;;12.93;7.15;;;;;;;5.93;100.00;101012.72;5057898;28;20457;-93
2023/04/02 00:17:57;;;;;;;14.53;8.10;;;;;;;5.92;100.00;101018.72;5057763;28;20021;-93
2023/04/02 00:20:25;;;;;;;13.57;7.75;;;;;;;5.87;100.00;101017.81;5057950;28;20025;-93
2023/04/02 00:22:50;;;;;;;16.88;9.48;;;;;;;5.89;100.00;101016.09;5057725;28;20075;-94
2023/04/02 00:25:16;;;;;;;16.40;9.03;;;;;;;5.84;100.00;101018.66;5057212;28;20025;-94
2023/04/02 00:27:42;;;;;;;17.00;9.88;;;;;;;5.81;100.00;101030.66;5057005;28;20415;-94
2023/04/02 00:30:11;;;;;;;16.40;9.38;;;;;;;5.71;100.00;101028.00;5057066;28;20021;-92
2023/04/02 00:32:37;;;;;;;15.73;8.95;;;;;;;5.79;100.00;101033.22;5057470;28;20029;-93
2023/04/02 00:35:12;;;;;;;15.93;9.03;;;;;;;5.65;100.00;101030.53;5057050;28;20179;-94
2023/04/02 00:37:37;;;;;;;16.45;9.65;;;;;;;5.69;100.00;101042.59;5057038;28;20473;-93
2023/04/02 00:40:15;;;;;;;15.77;8.70;;;;;;;5.74;100.00;101041.78;5057759;28;20032;-92
2023/04/02 00:42:41;;;;;;;15.63;8.73;;;;;;;5.72;100.00;101045.19;5057221;28;20029;-93
2023/04/02 00:45:18;;;;;;;17.23;9.23;;;;;;;5.67;100.00;101051.16;5057404;28;20103;-94
2023/04/02 00:47:43;;;;;;;16.15;9.23;;;;;;;5.65;100.00;101052.84;5056375;28;20025;-94
2023/04/02 00:50:13;;;;;;;16.33;9.20;;;;;;;5.62;100.00;101065.69;5037498;28;20485;-93
2023/04/02 00:52:41;;;;;;;16.75;9.55;;;;;;;5.56;100.00;101064.81;5036807;28;20044;-93
2023/04/02 00:55:14;;;;;;;15.48;8.63;;;;;;;5.61;100.00;101064.84;5037463;28;20029;-93
2023/04/02 00:57:43;;;;;;;17.23;9.68;;;;;;;5.62;100.00;101073.41;5035991;28;20036;-94
2023/04/02 01:00:28;;;;;;;16.83;9.55;;;;;;;5.60;100.00;101073.41;5037577;28;20033;-93
2023/04/02 01:03:15;;;;;;;15.77;8.88;;;;;;;5.62;100.00;101081.13;5036763;28;20511;-93
2023/04/02 01:05:44;;;;;;;14.98;8.65;;;;;;;5.64;100.00;101089.75;5036084;28;20037;-93
2023/04/02 01:08:12;;;;;;;14.30;7.95;;;;;;;5.64;100.00;101100.91;5036894;28;20461;-92
2023/04/02 01:10:40;;;;;;;17.00;9.10;;;;;;;5.64;100.00;101094.91;5036412;28;20022;-93
2023/04/02 01:13:43;;;;;;;16.80;9.02;;;;;;;5.65;100.00;101101.78;5036591;28;20089;-93
2023/04/02 01:16:26;;;;;;;17.45;9.70;;;;;;;5.60;100.00;101091.44;5037049;28;20018;-93
2023/04/02 01:19:00;;;;;;;16.67;8.98;;;;;;;5.62;100.00;101107.78;5036636;28;20029;-93
2023/04/02 01:21:59;;;;;;;16.48;9.43;;;;;;;5.61;100.00;101107.75;5037336;28;20389;-93
2023/04/02 01:24:33;;;;;;;16.75;9.50;;;;;;;5.56;100.00;101102.53;5040312;28;20026;-93
2023/04/02 01:27:03;;;;;;;15.52;8.65;;;;;;;5.63;100.00;101108.63;5036651;28;20025;-93
2023/04/02 01:29:38;;;;;;;14.50;8.38;;;;;;;5.64;100.00;101112.91;5036954;28;20033;-94
2023/04/02 01:32:09;;;;;;;18.20;10.43;;;;;;;5.53;100.00;101126.56;5035841;28;20124;-94
2023/04/02 01:34:35;;;;;;;18.77;10.48;;;;;;;5.51;100.00;101127.41;5035831;28;20029;-93
2023/04/02 01:37:28;;;;;;;17.77;10.20;;;;;;;5.48;100.00;101135.09;5036232;28;20113;-93
2023/04/02 01:40:16;;;;;;;19.83;11.65;;;;;;;5.38;100.00;101145.28;5036364;28;20033;-93
2023/04/02 01:42:57;;;;;;;19.52;10.40;;;;;;;5.38;100.00;101141.84;5036214;28;20029;-93
2023/04/02 01:45:25;;;;;;;18.48;11.00;;;;;;;5.30;100.00;101152.03;5036353;28;20029;-93
2023/04/02 01:47:51;;;;;;;18.90;10.30;;;;;;;5.32;100.00;101150.34;5036235;28;20108;-93
2023/04/02 01:50:32;;;;;;;17.90;10.43;;;;;;;5.19;100.00;101157.06;5035935;28;20511;-93
2023/04/02 01:53:03;;;;;;;17.52;9.73;;;;;;;5.14;100.00;101161.28;5036188;28;20029;-93
2023/04/02 01:55:48;;;;;;;16.33;9.23;;;;;;;5.04;100.00;101175.75;5036299;28;20021;-95
2023/04/02 01:58:25;;;;;;;16.83;8.85;;;;;;;5.07;100.00;101180.06;5035953;28;20473;-93
2023/04/02 02:00:50;;;;;;;;;;;;;;;5.09;100.00;101178.38;5036528;28;20362;-93
2023/04/02 02:03:16;;;;;;;17.10;8.70;;;;;;;5.06;100.00;101189.50;5036336;28;19913;-94
2023/04/02 02:05:45;;;;;;;14.90;8.03;;;;;;;5.05;100.00;101177.50;5035314;28;20033;-94
2023/04/02 02:09:08;;;;;;;13.63;7.65;;;;;;;5.08;100.00;101190.38;5035876;28;20029;-93
2023/04/02 02:11:35;;;;;;;14.75;7.70;;;;;;;5.02;100.00;101203.16;5018001;28;20064;-94
2023/04/02 02:14:10;;;;;;;14.02;7.80;;;;;;;5.04;100.00;101198.03;5035974;28;20022;-93
2023/04/02 02:16:40;;;;;;;15.73;7.63;;;;;;;5.02;100.00;101203.16;5035618;28;20033;-94
2023/04/02 02:19:14;;;;;;;14.85;7.82;;;;;;;4.85;100.00;101209.78;5035842;28;20017;-94
2023/04/02 02:21:49;;;;;;;12.05;7.20;;;;;;;4.88;100.00;101213.28;5035559;28;20376;-94
2023/04/02 02:24:24;;;;;;;11.77;6.60;;;;;;;4.90;100.00;101216.72;5035342;28;20025;-94
2023/04/02 02:27:11;;;;;;;12.82;6.75;;;;;;;4.81;100.00;101218.31;5034830;28;20532;-94
2023/04/02 02:29:39;;;;;;;13.63;6.60;;;;;;;4.83;100.00;101224.34;5035208;28;20060;-94
2023/04/02 02:32:08;;;;;;;12.13;6.40;;;;;;;4.85;100.00;101227.78;5035497;28;20021;-94
2023/04/02 02:34:40;;;;;;;10.88;6.30;;;;;;;4.79;100.00;101232.00;5035059;28;20462;-93
2023/04/02 02:37:13;;;;;;;12.75;6.30;;;;;;;4.78;100.00;101245.69;5035476;28;20029;-94
2023/04/02 02:39:42;;;;;;;11.73;6.38;;;;;;;4.80;100.00;101243.13;5036034;28;20071;-94
2023/04/02 02:42:23;;;;;;;11.77;6.30;;;;;;;4.82;100.00;101245.75;5054999;28;20035;-93
2023/04/02 02:44:51;;;;;;;11.40;6.10;;;;;;;4.73;100.00;101260.19;5054911;28;20032;-94
2023/04/02 02:47:27;;;;;;;10.13;5.75;;;;;;;4.75;100.00;101250.78;5055206;28;20029;-94
2023/04/02 02:49:56;;;;;;;11.27;6.18;;;;;;;4.75;100.00;101265.38;5054827;28;20039;-94
2023/04/02 02:52:26;;;;;;;10.27;5.82;;;;;;;4.78;100.00;101286.00;5055442;28;20025;-94
2023/04/02 02:54:56;;;;;;;13.55;6.88;;;;;;;4.75;100.00;101280.78;5055177;28;20025;-94
2023/04/02 02:57:27;;;;;;;14.13;7.57;;;;;;;4.72;100.00;101273.91;5039642;28;20072;-94
2023/04/02 02:59:55;;;;;;;13.98;7.03;;;;;;;4.78;100.00;101286.00;5034512;28;20055;-94
2023/04/02 03:02:23;;;;;;;11.77;6.68;;;;;;;4.80;100.00;101279.13;5035230;28;20466;-94
2023/04/02 03:04:51;;;;;;;15.52;8.52;;;;;;;4.77;100.00;101295.41;5034851;28;20394;-94
2023/04/02 03:07:20;;;;;;;16.85;8.82;;;;;;;4.76;100.00;101295.38;5034869;28;20025;-94
2023/04/02 03:10:11;;;;;;;17.27;9.23;;;;;;;4.72;100.00;101301.31;5034899;28;20022;-94
2023/04/02 03:13:03;;;;;;;17.60;9.50;;;;;;;4.71;100.00;101307.28;5034581;28;20057;-94
2023/04/02 03:15:37;;;;;;;16.65;9.25;;;;;;;4.74;100.00;101304.78;5034779;28;20036;-94
2023/04/02 03:18:12;;;;;;;17.38;9.05;;;;;;;4.71;100.00;101309.84;5040152;28;20021;-94
2023/04/02 03:20:51;;;;;;;16.15;8.70;;;;;;;4.70;100.00;101316.72;5054357;28;20568;-95
2023/04/02 03:23:23;;;;;;;18.75;9.80;;;;;;;4.55;100.00;101326.72;5054716;28;20362;-93
2023/04/02 03:25:59;;;;;;;17.10;9.02;;;;;;;4.59;100.00;101331.09;5054268;28;20041;-94
2023/04/02 03:28:31;;;;;;;15.77;7.90;;;;;;;4.66;100.00;101343.22;5054708;28;20028;-94
2023/04/02 03:31:04;;;;;;;17.02;9.07;;;;;;;4.67;100.00;101357.81;5055544;28;20021;-94
2023/04/02 03:33:37;;;;;;;18.05;9.15;;;;;;;4.59;100.00;101343.94;5060648;28;20051;-95
2023/04/02 03:36:15;;;;;;;17.80;9.18;;;;;;;4.65;100.00;101362.03;5054322;28;20045;-94
2023/04/02 03:38:45;;;;;;;16.55;8.80;;;;;;;4.62;100.00;101369.69;5054416;28;20036;-94
2023/04/02 03:41:31;;;;;;;16.02;8.43;;;;;;;4.56;100.00;101379.88;5054334;28;20457;-93
2023/04/02 03:44:06;;;;;;;15.10;8.10;;;;;;;4.54;100.00;101376.41;5054190;28;20053;-94
2023/04/02 03:46:47;;;;;;;16.83;8.38;;;;;;;4.55;100.00;101391.00;5054085;28;20499;-94
2023/04/02 03:49:19;;;;;;;15.60;8.32;;;;;;;4.32;100.00;101387.19;5039115;28;20053;-93
2023/04/02 03:52:01;;;;;;;17.25;8.70;;;;;;;4.36;100.00;101395.81;5034182;28;20044;-93
2023/04/02 03:54:27;;;;;;;16.67;8.45;;;;;;;4.32;100.00;101407.72;5033877;28;20172;-93
2023/04/02 03:56:53;;;;;;;16.55;8.27;;;;;;;4.31;100.00;101410.25;5034234;28;20072;-94
2023/04/02 03:59:40;;;;;;;16.48;8.43;;;;;;;4.29;100.00;101411.91;5034162;28;20026;-93
2023/04/02 04:02:32;;;;;;;16.48;8.10;;;;;;;4.31;100.00;101410.25;5034497;28;20041;-94
2023/04/02 04:04:58;;;;;;;18.00;9.27;;;;;;;4.25;100.00;101418.72;5034317;28;20156;-94
2023/04/02 04:07:43;;;;;;;19.30;9.95;;;;;;;4.26;100.00;101425.59;5034493;28;20120;-94
2023/04/02 04:10:21;;;;;;;18.52;9.75;;;;;;;4.23;100.00;101428.09;5034327;28;20033;-94
2023/04/02 04:12:48;;;;;;;17.65;9.52;;;;;;;4.19;100.00;101416.03;5034077;28;20156;-94
2023/04/02 04:15:35;;;;;;;19.70;10.43;;;;;;;4.16;100.00;101445.09;5034010;28;20025;-94
2023/04/02 04:18:20;;;;;;;18.70;10.05;;;;;;;4.14;100.00;101449.34;5034187;28;20072;-94
2023/04/02 04:20:48;;;;;;;17.65;9.60;;;;;;;4.18;100.00;101458.81;5033530;28;20021;-95
2023/04/02 04:23:18;;;;;;;19.45;10.55;;;;;;;4.16;100.00;101463.09;5034126;28;20025;-94
2023/04/02 04:25:49;;;;;;;18.75;10.25;;;;;;;4.16;100.00;101457.06;5034116;28;20034;-93
2023/04/02 04:28:28;;;;;;;18.58;9.82;;;;;;;4.11;100.00;101462.09;5033865;28;20029;-94
2023/04/02 04:31:02;;;;;;;15.32;8.32;;;;;;;4.09;100.00;101479.19;5033910;28;20025;-94
2023/04/02 04:33:38;;;;;;;16.65;8.43;;;;;;;4.02;100.00;101485.03;5036176;28;20025;-94
2023/04/02 04:36:05;;;;;;;15.93;8.02;;;;;;;3.96;100.00;101477.16;5037461;28;20041;-94
2023/04/02 04:38:38;;;;;;;15.73;7.95;;;;;;;4.06;100.00;101497.09;5036672;28;20036;-94
2023/04/02 04:41:14;;;;;;;15.45;7.60;;;;;;;4.09;100.00;101502.31;5037845;28;20027;-94
2023/04/02 04:43:47;;;;;;;;;;;;;;;4.08;100.00;101505.69;5037561;28;20036;-94
2023/04/02 04:46:18;;;;;;;12.70;6.65;;;;;;;4.06;100.00;101501.38;5037622;28;20056;-94
2023/04/02 04:48:57;;;;;;;14.60;7.13;;;;;;;4.06;100.00;101514.22;5037134;28;20071;-93
2023/04/02 04:51:38;;;;;;;13.75;6.93;;;;;;;4.00;100.00;101517.50;5037375;28;20030;-93
2023/04/02 04:54:03;;;;;;;13.63;6.90;;;;;;;3.99;100.00;101529.50;5037370;28;20025;-94
2023/04/02 04:56:31;;;;;;;12.80;7.00;;;;;;;3.95;100.00;101524.22;5037303;28;20025;-94
2023/04/02 04:58:59;;;;;;;14.55;7.35;;;;;;;3.92;100.00;101542.16;5037384;28;20025;-94
2023/04/02 05:01:42;;;;;;;16.17;7.57;;;;;;;3.76;100.00;101541.78;5037515;28;20022;-94
2023/04/02 05:04:10;;;;;;;16.75;7.88;;;;;;;3.76;100.00;101541.78;5037329;28;20692;-93
2023/04/02 05:06:50;;;;;;;17.23;8.40;;;;;;;3.64;100.00;101550.06;5036884;28;20457;-94
2023/04/02 05:09:26;;;;;;;16.38;8.18;;;;;;;3.66;100.00;101550.09;5036841;28;20029;-94
2023/04/02 05:12:13;;;;;;;15.23;7.93;;;;;;;3.71;100.00;101562.22;5036857;28;20119;-93
2023/04/02 05:14:52;;;;;;;15.70;7.88;;;;;;;3.71;100.00;101571.63;5036721;28;20032;-94
2023/04/02 05:17:22;;;;;;;16.08;7.57;;;;;;;3.68;100.00;101574.97;5036931;28;20033;-94
2023/04/02 05:19:57;;;;;;;14.82;7.68;;;;;;;3.74;100.00;101588.81;5036977;28;20049;-94
2023/04/02 05:22:41;;;;;;;13.63;6.82;;;;;;;3.72;100.00;101586.19;5037191;28;20029;-94
2023/04/02 05:25:14;;;;;;;14.52;6.90;;;;;;;3.69;100.00;101581.00;5036382;28;20029;-94
2023/04/02 05:27:54;;;;;;;14.75;7.05;;;;;;;3.63;99.88;101594.53;5036469;28;20429;-94
2023/04/02 05:30:22;;;;;;;14.68;7.03;;;;;;;3.63;100.00;101591.09;5036568;28;20037;-94
2023/04/02 05:33:03;;;;;;;16.60;7.45;;;;;;;3.59;99.93;101590.16;5036505;28;20029;-93
2023/04/02 05:35:34;;;;;;;13.30;6.90;;;;;;;3.68;100.00;101600.66;5036270;28;20060;-94
2023/04/02 05:38:05;;;;;;;14.50;7.40;;;;;;;3.65;100.00;101599.69;5036429;28;20035;-92
2023/04/02 05:40:40;;;;;;;16.40;7.80;;;;;;;3.58;100.00;101605.53;5035785;28;20041;-89
2023/04/02 05:43:10;;;;;;;17.05;8.25;;;;;;;3.57;100.00;101621.75;5037195;28;20025;-89
2023/04/02 05:45:38;;;;;;;15.05;7.55;;;;;;;3.60;100.00;101620.13;5037814;28;20033;-89
2023/04/02 05:48:14;;;;;;;17.77;8.27;;;;;;;3.56;100.00;101615.72;5040383;28;20024;-89
2023/04/02 05:50:43;;;;;;;18.88;9.25;;;;;;;3.58;100.00;101621.78;5055344;28;20082;-89
2023/04/02 05:53:17;;;;;;;16.45;8.38;;;;;;;3.64;100.00;101628.78;5054457;28;20112;-87
2023/04/02 05:55:50;;;;;;;16.85;8.30;;;;;;;3.66;100.00;101625.41;5054497;28;20033;-88
2023/04/02 05:58:51;;;;;;;17.42;9.30;;;;;;;3.65;100.00;101644.22;5054741;28;20013;-87
2023/04/02 06:01:29;;;;;;;18.42;9.48;;;;;;;3.65;100.00;101656.19;5040028;28;20048;-87
2023/04/02 06:04:25;;;;;;;19.08;9.77;;;;;;;3.66;100.00;101656.22;5054142;28;20524;-87
2023/04/02 06:07:07;;;;;;;18.33;10.35;;;;;;;3.63;100.00;101669.00;5053730;28;20044;-87
2023/04/02 06:10:05;;;;;;;18.38;9.77;;;;;;;3.51;98.11;101672.06;5045023;28;20033;-93
2023/04/02 06:12:50;;;;;;;18.35;9.52;;;;;;;3.54;99.30;101679.88;5027740;28;20528;-93
2023/04/02 06:15:18;;;;;;;17.77;9.27;;;;;;;3.54;99.92;101679.88;5035245;28;20026;-92
2023/04/02 06:17:50;;;;;;;20.25;10.10;;;;;;;3.57;99.17;101684.22;5035112;28;20060;-82
2023/04/02 06:20:18;;;;;;;18.13;9.55;;;;;;;3.48;98.61;101699.34;5035436;28;20029;-92
2023/04/02 06:22:47;;;;;;;16.25;8.68;;;;;;;3.50;99.14;101708.84;5035571;28;20465;-92
2023/04/02 06:25:26;;;;;;;18.10;9.93;;;;;;;3.39;97.25;101708.53;5035208;28;20025;-92
2023/04/02 06:27:55;;;;;;;17.63;8.90;;;;;;;3.38;98.02;101709.38;5034837;28;20500;-92
2023/04/02 06:30:30;;;;;;;16.20;7.93;;;;;;;3.46;98.31;101717.28;5035481;28;20025;-92
2023/04/02 06:32:58;;;;;;;17.42;8.60;;;;;;;3.46;97.15;101727.56;5044933;28;20055;-92
2023/04/02 06:35:23;;;;;;;16.55;8.70;;;;;;;3.48;96.94;101732.72;5054786;28;20057;-92
2023/04/02 06:37:52;;;;;;;15.63;7.85;;;;;;;3.45;96.02;101737.75;5054918;28;20052;-92
2023/04/02 06:40:35;;;;;;;16.80;7.80;;;;;;;3.45;96.88;101736.09;5055570;28;20040;-92
2023/04/02 06:43:15;;;;;;;15.07;7.75;;;;;;;3.43;96.37;101759.97;5054925;28;20477;-92
2023/04/02 06:45:45;;;;;;;15.82;7.68;;;;;;;3.38;96.27;101759.81;5053975;28;20357;-83
2023/04/02 06:48:16;;;;;;;15.90;7.65;;;;;;;3.24;94.48;101772.25;5054174;28;20513;-88
2023/04/02 06:50:48;;;;;;;14.63;7.13;;;;;;;3.18;93.89;101769.50;5053720;28;20076;-88
2023/04/02 06:53:22;;;;;;;14.65;7.13;;;;;;;3.23;95.42;101779.06;5053984;28;20431;-88
2023/04/02 06:55:56;;;;;;;13.55;6.60;;;;;;;3.30;94.71;101784.38;5053225;28;20036;-88
2023/04/02 06:58:22;;;;;;;13.70;6.95;;;;;;;3.30;94.57;101787.84;5051873;28;20075;-88
2023/04/02 07:00:49;;;;;;;15.35;6.80;;;;;;;3.26;95.24;101796.25;5053600;28;20037;-87
2023/04/02 07:03:26;;;;;;;14.20;6.20;;;;;;;3.29;94.43;101803.16;5053462;28;20021;-88
2023/04/02 07:05:52;;;;;;;11.85;6.10;;;;;;;3.36;95.68;101797.41;5053180;28;20043;-87
2023/04/02 07:08:17;;;;;;;13.13;5.90;;;;;;;3.31;94.01;101806.66;5053218;28;20128;-87
2023/04/02 07:10:48;;;;;;;12.40;5.47;;;;;;;3.30;94.24;101804.91;5052796;28;20025;-87
2023/04/02 07:13:27;;;;;;;11.52;5.60;;;;;;;3.35;94.35;101827.31;5053680;28;20082;-87
2023/04/02 07:15:54;;;;;;;10.63;5.25;;;;;;;3.31;94.65;101829.75;5033320;28;20021;-88
2023/04/02 07:18:40;;;;;;;14.52;5.82;;;;;;;3.14;92.24;101853.19;5032516;28;20470;-89
2023/04/02 07:21:05;;;;;;;13.18;5.60;;;;;;;3.20;94.92;101848.25;5033538;28;20040;-87
2023/04/02 07:23:30;;;;;;;13.02;5.13;;;;;;;3.05;92.11;101863.13;5032109;28;20018;-86
2023/04/02 07:25:57;;;;;;;11.52;4.65;;;;;;;3.06;93.20;101859.75;5035921;28;20033;-87
2023/04/02 07:28:23;;;;;;;12.70;4.63;;;;;;;2.93;91.98;101861.91;5053056;28;20032;-87
2023/04/02 07:30:49;;;;;;;9.97;4.50;;;;;;;2.88;92.36;101873.72;5052210;28;20057;-88
2023/04/02 07:33:24;;;;;;;10.50;4.57;;;;;;;2.87;92.36;101872.00;5053056;28;20036;-87
2023/04/02 07:35:51;;;;;;;13.75;4.90;;;;;;;2.89;92.75;101872.03;5052654;28;20292;-87
2023/04/02 07:38:16;;;;;;;8.88;4.10;;;;;;;2.95;93.21;101882.50;5052389;28;20063;-86
2023/04/02 07:40:42;;;;;;;9.88;4.22;;;;;;;2.93;91.93;101874.75;5052396;28;20045;-86
2023/04/02 07:43:08;;;;;;;11.95;4.55;;;;;;;3.02;93.61;101884.44;5052533;28;20025;-86
2023/04/02 07:45:33;;;;;;;10.55;4.30;;;;;;;3.06;91.54;101890.53;5033655;28;20492;-86
2023/04/02 07:48:07;;;;;;;12.48;4.38;;;;;;;3.00;90.98;101893.75;5032858;28;20030;-87
2023/04/02 07:50:33;;;;;;;10.45;4.35;;;;;;;3.01;91.62;101894.66;5032977;28;20021;-87
2023/04/02 07:52:58;;;;;;;10.10;4.03;;;;;;;3.08;92.67;101897.47;5042464;28;20186;-87
2023/04/02 07:55:23;;;;;;;10.75;4.20;;;;;;;3.18;92.76;101896.06;5051250;28;20040;-86
2023/04/02 07:57:57;;;;;;;10.02;4.30;;;;;;;3.20;91.93;101897.00;5052196;28;20025;-86
2023/04/02 08:00:23;;;;;;;12.77;4.22;;;;;;;3.30;90.88;101904.97;5051871;28;20029;-87
2023/04/02 08:02:52;;;;;;;7.60;4.00;;;;;;;3.24;90.03;101906.53;5052187;28;20174;-88
2023/04/02 08:05:18;;;;;;;9.88;4.05;;;;;;;3.29;90.55;101911.81;5037054;28;20504;-86
2023/04/02 08:07:50;;;;;;;9.90;3.92;;;;;;;3.26;89.42;101919.41;5033554;28;20018;-87
2023/04/02 08:10:17;;;;;;;8.27;3.80;;;;;;;3.27;91.47;101925.41;5036810;28;20034;-87
2023/04/02 08:12:43;;;;;;;8.35;3.80;;;;;;;3.27;89.78;101928.84;5035467;28;20556;-87
2023/04/02 08:15:09;;;;;;;9.90;3.95;;;;;;;3.29;89.47;101944.28;5037827;28;20057;-87
2023/04/02 08:17:34;;;;;;;8.57;3.70;;;;;;;3.20;88.86;101942.31;5041265;28;20035;-87
2023/04/02 08:20:00;;;;;;;10.32;3.90;;;;;;;3.17;90.17;101942.19;5042937;28;20051;-87
2023/04/02 08:22:29;;;;;;;8.30;3.70;;;;;;;3.22;91.13;101943.22;5044408;28;20021;-87
2023/04/02 08:24:55;;;;;;;9.55;3.80;;;;;;;3.34;90.32;101951.31;5054594;28;20469;-85
2023/04/02 08:27:22;;;;;;;9.60;3.42;;;;;;;3.43;91.08;101953.31;5039001;28;20036;-87
2023/04/02 08:29:47;;;;;;;9.43;3.90;;;;;;;3.27;89.12;101957.06;5035990;28;20021;-88
2023/04/02 08:32:17;;;;;;;6.90;3.50;;;;;;;3.35;89.42;101971.00;5036205;28;20079;-87
2023/04/02 08:34:43;;;;;;;8.80;3.80;;;;;;;3.23;89.42;101968.94;5034692;28;20042;-87
2023/04/02 08:37:15;;;;;;;9.27;3.30;;;;;;;3.23;89.66;101975.75;5036133;28;20053;-87
2023/04/02 08:39:41;;;;;;;9.38;4.00;;;;;;;3.13;89.54;101982.28;5035759;28;20021;-87
2023/04/02 08:42:36;;;;;;;9.00;3.70;;;;;;;3.16;90.04;101994.31;5035292;28;20071;-87
2023/04/02 08:45:23;;;;;;;6.68;3.30;;;;;;;3.25;89.46;102002.31;5036740;28;20084;-87
2023/04/02 08:47:50;;;;;;;10.63;3.47;;;;;;;3.29;90.62;102006.75;5035247;28;20256;-87
2023/04/02 08:50:33;;;;;;;;;;;;;;;3.15;88.55;102019.13;5036312;28;20068;-87
2023/04/02 08:53:19;;;;;;;7.80;3.03;;;;;;;3.19;90.61;102010.69;5035916;28;19913;-87
2023/04/02 08:56:16;;;;;;;6.78;3.40;;;;;;;3.24;89.13;102014.31;5034565;28;20464;-87
2023/04/02 08:58:54;;;;;;;6.32;3.40;;;;;;;3.33;90.20;102033.38;5035684;28;20037;-86
2023/04/02 09:01:34;;;;;;;7.63;3.40;;;;;;;3.20;87.50;102035.53;5036180;28;20033;-88
2023/04/02 09:04:02;;;;;;;8.30;3.38;;;;;;;3.23;87.85;102037.31;5035658;28;20029;-87
2023/04/02 09:06:28;;;;;;;8.88;3.40;;;;;;;3.28;87.79;102030.66;5035841;28;20576;-88
2023/04/02 09:08:55;;;;;;;5.43;3.15;;;;;;;3.24;88.15;102039.97;5034518;28;20044;-88
2023/04/02 09:11:40;;;;;;;6.60;3.05;;;;;;;3.38;89.54;102047.22;5035532;28;20469;-88
2023/04/02 09:14:17;;;;;;;8.98;3.40;;;;;;;3.48;88.57;102061.25;5040157;28;20357;-88
2023/04/02 09:16:53;;;;;;;7.40;3.30;;;;;;;3.32;88.22;102052.16;5054646;28;20100;-87
2023/04/02 09:19:33;;;;;;;7.65;3.45;;;;;;;3.39;88.71;102059.25;5054921;28;20484;-88
2023/04/02 09:22:22;;;;;;;7.07;3.40;;;;;;;3.24;89.11;102065.63;5055163;28;20104;-86
2023/04/02 09:24:56;;;;;;;7.35;3.30;;;;;;;3.22;87.46;102072.38;5047078;28;20034;-88
2023/04/02 09:27:25;;;;;;;7.43;3.40;;;;;;;3.27;87.91;102079.34;5035261;28;20377;-87
2023/04/02 09:30:01;;;;;;;5.72;3.20;;;;;;;3.42;89.20;102086.72;5034024;28;20385;-87
2023/04/02 09:32:39;;;;;;;8.25;3.72;;;;;;;3.46;87.39;102092.00;5035344;28;20026;-88
2023/04/02 09:35:08;;;;;;;9.93;3.40;;;;;;;3.31;87.46;102092.38;5034765;28;20047;-87
2023/04/02 09:37:36;;;;;;;7.15;3.40;;;;;;;3.30;88.59;102099.97;5047876;28;20029;-86
2023/04/02 09:40:25;;;;;;;7.57;3.30;;;;;;;3.45;89.25;102095.41;5055170;28;20021;-87
2023/04/02 09:43:21;;;;;;;7.53;3.20;;;;;;;3.48;88.48;102105.78;5054383;28;20037;-87
2023/04/02 09:45:59;;;;;;;7.72;3.33;;;;;;;3.44;87.31;102109.03;5051455;28;20044;-87
2023/04/02 09:48:26;;;;;;;8.65;3.35;;;;;;;3.51;88.96;102107.56;5054688;28;20092;-87
2023/04/02 09:51:20;;;;;;;8.02;3.50;;;;;;;3.45;88.58;102118.50;5053673;28;20100;-87
2023/04/02 09:53:48;;;;;;;6.85;3.35;;;;;;;3.29;88.70;102119.66;5054374;28;20070;-87
2023/04/02 09:56:22;;;;;;;8.63;3.65;;;;;;;3.35;89.35;102119.00;5054508;28;20021;-87
2023/04/02 09:59:14;;;;;;;7.28;3.38;;;;;;;3.37;90.38;102128.50;5053989;28;20067;-88
2023/04/02 10:02:00;;;;;;;8.38;3.40;;;;;;;3.50;91.41;102142.59;5049550;28;20492;-87
2023/04/02 10:04:42;;;;;;;6.05;3.30;;;;;;;3.54;90.23;102139.34;5054526;28;20373;-88
2023/04/02 10:07:37;;;;;;;7.00;3.25;;;;;;;3.58;88.71;102147.16;5054005;28;20028;-87
2023/04/02 10:10:22;;;;;;;6.70;3.20;;;;;;;3.57;89.87;102147.97;5055000;28;20044;-87
2023/04/02 10:12:57;;;;;;;7.77;3.30;;;;;;;3.51;88.74;102148.63;5053456;28;20017;-87
2023/04/02 10:15:31;;;;;;;8.35;3.50;;;;;;;3.57;88.07;102153.13;5053646;28;20429;-87
2023/04/02 10:18:38;;;;;;;10.45;3.63;;;;;;;3.48;88.86;102153.66;5054288;28;20113;-87
2023/04/02 10:21:06;;;;;;;7.50;3.40;;;;;;;3.57;89.13;102150.53;5053305;28;20392;-86
2023/04/02 10:23:32;;;;;;;7.70;3.35;;;;;;;3.63;88.41;102151.63;5053249;28;20381;-83
2023/04/02 10:26:06;;;;;;;6.75;3.15;;;;;;;3.81;90.68;102159.09;5053198;28;20029;-85
2023/04/02 10:28:47;;;;;;;6.05;3.40;;;;;;;3.95;88.37;102158.66;5053647;28;20021;-86
2023/04/02 10:31:24;;;;;;;5.68;3.20;;;;;;;4.09;88.50;102164.28;5053418;28;20043;-87
2023/04/02 10:33:50;;;;;;;;;;;;;;;4.13;88.00;102172.13;5053189;28;20497;-88
2023/04/02 10:36:54;;;;;;;7.68;3.30;;;;;;;3.99;87.28;102166.53;5053547;28;19921;-87
2023/04/02 10:39:31;;;;;;;5.97;3.30;;;;;;;4.05;87.18;102181.28;5053721;28;20090;-86
2023/04/02 10:42:17;;;;;;;5.85;2.92;;;;;;;4.20;87.87;102195.44;5053147;28;20025;-87
2023/04/02 10:44:53;;;;;;;7.20;3.35;;;;;;;4.16;84.71;102195.38;5053634;28;20047;-87
2023/04/02 10:47:33;;;;;;;10.35;4.00;;;;;;;3.83;86.13;102211.34;5053372;28;20029;-87
2023/04/02 10:50:13;;;;;;;7.55;3.75;;;;;;;3.92;86.29;102204.81;5053538;28;20025;-87
2023/04/02 10:55:41;;;;;;;7.43;3.40;;;;;;;4.08;86.46;102203.63;5040850;23;20057;-87
2023/04/02 10:58:19;;;;;;;11.65;3.80;;;;;;;4.04;85.30;102201.78;5033670;28;20381;-87
2023/04/02 11:00:46;;;;;;;7.07;3.40;;;;;;;4.10;85.76;102204.56;5033626;28;20018;-88
2023/04/02 11:03:36;;;;;;;7.10;3.35;;;;;;;4.18;84.53;102210.81;5033521;28;20040;-87
2023/04/02 11:06:10;;;;;;;8.30;3.83;;;;;;;4.27;83.50;102205.97;5010596;28;20070;-88
2023/04/02 11:08:46;;;;;;;6.63;3.70;;;;;;;4.45;84.76;102213.41;5013935;28;20026;-87
2023/04/02 11:11:16;;;;;;;7.47;3.65;;;;;;;4.61;83.40;102212.19;5013985;28;20108;-86
2023/04/02 11:13:47;;;;;;;9.10;3.90;;;;;;;4.68;81.89;102218.41;5013433;28;20144;-87
2023/04/02 11:16:15;;;;;;;8.07;3.50;;;;;;;4.71;81.54;102231.38;5012707;28;20074;-86
2023/04/02 11:18:41;;;;;;;6.15;3.38;;;;;;;4.82;82.36;102234.25;5013595;28;20092;-87
2023/04/02 11:21:39;;;;;;;5.95;3.40;;;;;;;4.98;81.91;102245.91;5013869;28;20022;-87
2023/04/02 11:24:05;;;;;;;8.02;3.35;;;;;;;4.57;79.89;102254.06;5000944;28;20038;-87
2023/04/02 11:26:32;;;;;;;7.28;3.40;;;;;;;4.56;80.84;102260.03;5013241;28;20111;-86
2023/04/02 11:29:12;;;;;;;8.52;3.20;;;;;;;4.48;80.76;102256.34;5013281;28;20022;-87
2023/04/02 11:31:38;;;;;;;5.28;3.10;;;;;;;4.60;82.54;102254.16;5012850;28;20022;-85
2023/04/02 11:34:03;;;;;;;8.45;3.25;;;;;;;4.56;82.61;102270.31;5017981;28;20143;-86
2023/04/02 11:36:54;;;;;;;7.17;3.00;;;;;;;4.86;82.53;102253.25;5032335;28;20030;-87
2023/04/02 11:39:52;;;;;;;7.50;3.00;;;;;;;5.05;81.35;102267.53;5033271;28;20037;-88
2023/04/02 11:42:17;;;;;;;6.68;3.00;;;;;;;5.16;81.95;102265.31;5035178;28;20091;-88
2023/04/02 11:44:42;;;;;;;8.98;3.22;;;;;;;5.12;79.48;102266.03;5036828;28;20017;-88
2023/04/02 11:47:19;;;;;;;8.43;3.30;;;;;;;5.03;79.32;102275.22;5037052;28;20099;-87
2023/04/02 11:50:05;;;;;;;6.78;3.28;;;;;;;4.85;78.86;102270.38;5037371;28;20381;-88
2023/04/02 11:52:36;;;;;;;7.28;3.20;;;;;;;4.61;79.46;102276.50;5143413;22;20053;-87
2023/04/02 11:55:23;;;;;;;6.88;3.13;;;;;;;4.72;80.99;102284.56;5037008;28;20064;-87
2023/04/02 11:57:57;;;;;;;;;;;;;;;4.65;79.34;102305.75;5035841;28;20031;-85
2023/04/02 12:00:32;;;;;;;9.38;3.85;;;;;;;4.60;80.75;102282.44;5035679;28;19959;-86
2023/04/02 12:05:53;;;;;;;6.60;3.40;;;;;;;4.82;81.34;102298.56;5041799;23;20056;-86